sensor_id;sensor_type;location;lat;lon;timestamp;temperature;humidity
28484;DHT22;15704;48.834;8.736;2022-07-10T00:03:37;15.90;99.90
28484;DHT22;15704;48.834;8.736;2022-07-10T00:07:21;15.90;99.90
28484;DHT22;15704;48.834;8.736;2022-07-10T00:11:03;15.80;99.90
28484;DHT22;15704;48.834;8.736;2022-07-10T00:14:46;15.80;99.90
28484;DHT22;15704;48.834;8.736;2022-07-10T00:18:29;15.80;99.90
28484;DHT22;15704;48.834;8.736;2022-07-10T00:22:12;15.80;99.90
28484;DHT22;15704;48.834;8.736;2022-07-10T00:25:56;15.70;99.90
28484;DHT22;15704;48.834;8.736;2022-07-10T00:29:39;15.60;99.90
28484;DHT22;15704;48.834;8.736;2022-07-10T00:33:23;15.50;99.90
28484;DHT22;15704;48.834;8.736;2022-07-10T00:37:06;15.50;99.90
28484;DHT22;15704;48.834;8.736;2022-07-10T00:40:48;15.50;99.90
28484;DHT22;15704;48.834;8.736;2022-07-10T00:44:32;15.40;99.90
28484;DHT22;15704;48.834;8.736;2022-07-10T00:48:15;15.40;99.90
28484;DHT22;15704;48.834;8.736;2022-07-10T00:52:00;15.40;99.90
28484;DHT22;15704;48.834;8.736;2022-07-10T00:55:44;15.50;99.90
28484;DHT22;15704;48.834;8.736;2022-07-10T00:59:27;15.50;99.90
28484;DHT22;15704;48.834;8.736;2022-07-10T01:03:12;15.40;99.90
28484;DHT22;15704;48.834;8.736;2022-07-10T01:06:54;15.30;99.90
28484;DHT22;15704;48.834;8.736;2022-07-10T01:10:37;15.30;99.90
28484;DHT22;15704;48.834;8.736;2022-07-10T01:14:21;15.30;99.90
28484;DHT22;15704;48.834;8.736;2022-07-10T01:18:04;15.30;99.90
28484;DHT22;15704;48.834;8.736;2022-07-10T01:21:48;15.30;99.90
28484;DHT22;15704;48.834;8.736;2022-07-10T01:25:31;15.40;99.90
28484;DHT22;15704;48.834;8.736;2022-07-10T01:29:14;15.40;99.90
28484;DHT22;15704;48.834;8.736;2022-07-10T01:32:56;15.40;99.90
28484;DHT22;15704;48.834;8.736;2022-07-10T01:36:39;15.40;99.90
28484;DHT22;15704;48.834;8.736;2022-07-10T01:40:24;15.50;99.90
28484;DHT22;15704;48.834;8.736;2022-07-10T01:44:06;15.50;99.90
28484;DHT22;15704;48.834;8.736;2022-07-10T01:47:49;15.50;99.90
28484;DHT22;15704;48.834;8.736;2022-07-10T01:51:32;15.40;99.90
28484;DHT22;15704;48.834;8.736;2022-07-10T01:55:15;15.50;99.90
28484;DHT22;15704;48.834;8.736;2022-07-10T01:59:00;15.40;99.90
28484;DHT22;15704;48.834;8.736;2022-07-10T02:02:44;15.50;99.90
28484;DHT22;15704;48.834;8.736;2022-07-10T02:06:47;15.40;99.90
28484;DHT22;15704;48.834;8.736;2022-07-10T02:10:30;15.40;99.90
28484;DHT22;15704;48.834;8.736;2022-07-10T02:14:16;15.40;99.90
28484;DHT22;15704;48.834;8.736;2022-07-10T02:17:59;15.30;99.90
28484;DHT22;15704;48.834;8.736;2022-07-10T02:21:42;15.20;99.90
28484;DHT22;15704;48.834;8.736;2022-07-10T02:25:25;15.10;99.90
28484;DHT22;15704;48.834;8.736;2022-07-10T02:29:08;15.10;99.90
28484;DHT22;15704;48.834;8.736;2022-07-10T02:32:52;15.00;99.90
28484;DHT22;15704;48.834;8.736;2022-07-10T02:36:35;15.00;99.90
28484;DHT22;15704;48.834;8.736;2022-07-10T02:40:19;14.80;99.90
28484;DHT22;15704;48.834;8.736;2022-07-10T02:44:02;14.80;99.90
28484;DHT22;15704;48.834;8.736;2022-07-10T02:47:44;14.80;99.90
28484;DHT22;15704;48.834;8.736;2022-07-10T02:51:28;14.80;99.90
28484;DHT22;15704;48.834;8.736;2022-07-10T02:55:12;14.70;99.90
28484;DHT22;15704;48.834;8.736;2022-07-10T02:58:54;14.70;99.90
28484;DHT22;15704;48.834;8.736;2022-07-10T03:02:37;14.80;99.90
28484;DHT22;15704;48.834;8.736;2022-07-10T03:06:20;14.70;99.90
28484;DHT22;15704;48.834;8.736;2022-07-10T03:10:05;14.60;99.90
28484;DHT22;15704;48.834;8.736;2022-07-10T03:13:48;14.60;99.90
28484;DHT22;15704;48.834;8.736;2022-07-10T03:17:31;14.50;99.90
28484;DHT22;15704;48.834;8.736;2022-07-10T03:21:16;14.50;99.90
28484;DHT22;15704;48.834;8.736;2022-07-10T03:24:59;14.40;99.90
28484;DHT22;15704;48.834;8.736;2022-07-10T03:28:43;14.40;99.90
28484;DHT22;15704;48.834;8.736;2022-07-10T03:32:28;14.40;99.90
28484;DHT22;15704;48.834;8.736;2022-07-10T03:36:11;14.20;99.90
28484;DHT22;15704;48.834;8.736;2022-07-10T03:39:54;14.20;99.90
28484;DHT22;15704;48.834;8.736;2022-07-10T03:43:37;14.20;99.90
28484;DHT22;15704;48.834;8.736;2022-07-10T03:47:21;14.10;99.90
28484;DHT22;15704;48.834;8.736;2022-07-10T03:51:04;14.10;99.90
28484;DHT22;15704;48.834;8.736;2022-07-10T03:54:47;14.20;99.90
28484;DHT22;15704;48.834;8.736;2022-07-10T03:58:30;14.10;99.90
28484;DHT22;15704;48.834;8.736;2022-07-10T04:02:13;14.10;99.90
28484;DHT22;15704;48.834;8.736;2022-07-10T04:05:59;14.10;99.90
28484;DHT22;15704;48.834;8.736;2022-07-10T04:09:42;14.10;99.90
28484;DHT22;15704;48.834;8.736;2022-07-10T04:13:25;14.10;99.90
28484;DHT22;15704;48.834;8.736;2022-07-10T04:17:08;14.10;99.90
28484;DHT22;15704;48.834;8.736;2022-07-10T04:20:54;13.90;99.90
28484;DHT22;15704;48.834;8.736;2022-07-10T04:24:40;14.00;99.90
28484;DHT22;15704;48.834;8.736;2022-07-10T04:28:25;13.80;99.90
28484;DHT22;15704;48.834;8.736;2022-07-10T04:32:16;13.90;99.90
28484;DHT22;15704;48.834;8.736;2022-07-10T04:35:59;13.90;99.90
28484;DHT22;15704;48.834;8.736;2022-07-10T04:39:43;14.00;99.90
28484;DHT22;15704;48.834;8.736;2022-07-10T04:43:26;13.90;99.90
28484;DHT22;15704;48.834;8.736;2022-07-10T04:47:09;14.00;99.90
28484;DHT22;15704;48.834;8.736;2022-07-10T04:50:52;14.00;99.90
28484;DHT22;15704;48.834;8.736;2022-07-10T04:54:38;14.00;99.90
28484;DHT22;15704;48.834;8.736;2022-07-10T04:58:22;13.80;99.90
28484;DHT22;15704;48.834;8.736;2022-07-10T05:02:05;13.80;99.90
28484;DHT22;15704;48.834;8.736;2022-07-10T05:05:49;13.80;99.90
28484;DHT22;15704;48.834;8.736;2022-07-10T05:09:33;13.70;99.90
28484;DHT22;15704;48.834;8.736;2022-07-10T05:13:16;13.80;99.90
28484;DHT22;15704;48.834;8.736;2022-07-10T05:17:00;13.80;99.90
28484;DHT22;15704;48.834;8.736;2022-07-10T05:20:43;13.90;99.90
28484;DHT22;15704;48.834;8.736;2022-07-10T05:24:29;13.90;99.90
28484;DHT22;15704;48.834;8.736;2022-07-10T05:28:11;14.00;99.90
28484;DHT22;15704;48.834;8.736;2022-07-10T05:31:56;14.00;99.90
28484;DHT22;15704;48.834;8.736;2022-07-10T05:35:40;14.10;99.90
28484;DHT22;15704;48.834;8.736;2022-07-10T05:39:23;14.30;99.90
28484;DHT22;15704;48.834;8.736;2022-07-10T05:43:08;14.20;99.90
28484;DHT22;15704;48.834;8.736;2022-07-10T05:46:52;14.30;99.90
28484;DHT22;15704;48.834;8.736;2022-07-10T05:50:35;14.30;99.90
28484;DHT22;15704;48.834;8.736;2022-07-10T05:54:19;14.30;99.90
28484;DHT22;15704;48.834;8.736;2022-07-10T05:58:02;14.30;99.90
28484;DHT22;15704;48.834;8.736;2022-07-10T06:01:45;14.50;99.90
28484;DHT22;15704;48.834;8.736;2022-07-10T06:05:28;14.50;99.90
28484;DHT22;15704;48.834;8.736;2022-07-10T06:09:11;14.20;99.90
28484;DHT22;15704;48.834;8.736;2022-07-10T06:12:55;14.70;99.90
28484;DHT22;15704;48.834;8.736;2022-07-10T06:16:37;14.70;99.90
28484;DHT22;15704;48.834;8.736;2022-07-10T06:20:20;14.90;99.90
28484;DHT22;15704;48.834;8.736;2022-07-10T06:24:03;14.90;99.90
28484;DHT22;15704;48.834;8.736;2022-07-10T06:27:46;15.00;99.90
28484;DHT22;15704;48.834;8.736;2022-07-10T06:31:30;14.60;99.90
28484;DHT22;15704;48.834;8.736;2022-07-10T06:35:13;14.70;99.90
28484;DHT22;15704;48.834;8.736;2022-07-10T06:38:56;14.70;99.90
28484;DHT22;15704;48.834;8.736;2022-07-10T06:42:38;14.40;99.90
28484;DHT22;15704;48.834;8.736;2022-07-10T06:46:25;14.40;99.90
28484;DHT22;15704;48.834;8.736;2022-07-10T06:50:09;14.20;99.90
28484;DHT22;15704;48.834;8.736;2022-07-10T06:53:52;14.20;99.90
28484;DHT22;15704;48.834;8.736;2022-07-10T06:57:35;14.50;99.90
28484;DHT22;15704;48.834;8.736;2022-07-10T07:01:20;14.50;99.90
28484;DHT22;15704;48.834;8.736;2022-07-10T07:05:03;14.40;99.90
28484;DHT22;15704;48.834;8.736;2022-07-10T07:08:47;14.30;99.90
28484;DHT22;15704;48.834;8.736;2022-07-10T07:12:30;14.30;99.90
28484;DHT22;15704;48.834;8.736;2022-07-10T07:16:13;14.40;99.90
28484;DHT22;15704;48.834;8.736;2022-07-10T07:20:00;14.30;99.90
28484;DHT22;15704;48.834;8.736;2022-07-10T07:24:03;13.90;99.90
28484;DHT22;15704;48.834;8.736;2022-07-10T07:27:46;14.20;99.90
28484;DHT22;15704;48.834;8.736;2022-07-10T07:31:29;14.50;99.90
28484;DHT22;15704;48.834;8.736;2022-07-10T07:35:13;14.30;99.90
28484;DHT22;15704;48.834;8.736;2022-07-10T07:38:56;14.30;99.90
28484;DHT22;15704;48.834;8.736;2022-07-10T07:42:41;14.60;99.90
28484;DHT22;15704;48.834;8.736;2022-07-10T07:46:24;14.90;99.90
28484;DHT22;15704;48.834;8.736;2022-07-10T07:50:08;15.20;99.90
28484;DHT22;15704;48.834;8.736;2022-07-10T07:53:50;15.80;99.90
28484;DHT22;15704;48.834;8.736;2022-07-10T07:57:33;16.70;99.90
28484;DHT22;15704;48.834;8.736;2022-07-10T08:01:17;16.40;99.90
28484;DHT22;15704;48.834;8.736;2022-07-10T08:05:01;16.30;99.90
28484;DHT22;15704;48.834;8.736;2022-07-10T08:08:46;16.20;99.90
28484;DHT22;15704;48.834;8.736;2022-07-10T08:12:28;16.50;99.90
28484;DHT22;15704;48.834;8.736;2022-07-10T08:16:11;16.60;99.90
28484;DHT22;15704;48.834;8.736;2022-07-10T08:19:56;17.00;99.90
28484;DHT22;15704;48.834;8.736;2022-07-10T08:23:39;17.10;99.90
28484;DHT22;15704;48.834;8.736;2022-07-10T08:27:22;17.10;99.90
28484;DHT22;15704;48.834;8.736;2022-07-10T08:31:05;17.80;99.90
28484;DHT22;15704;48.834;8.736;2022-07-10T08:34:57;17.90;99.90
28484;DHT22;15704;48.834;8.736;2022-07-10T08:38:40;17.70;99.90
28484;DHT22;15704;48.834;8.736;2022-07-10T08:42:24;17.60;99.90
28484;DHT22;15704;48.834;8.736;2022-07-10T08:46:12;17.90;99.90
28484;DHT22;15704;48.834;8.736;2022-07-10T08:49:57;17.90;99.90
28484;DHT22;15704;48.834;8.736;2022-07-10T08:53:40;17.90;99.90
28484;DHT22;15704;48.834;8.736;2022-07-10T08:57:23;18.20;99.90
28484;DHT22;15704;48.834;8.736;2022-07-10T09:01:06;17.60;99.90
28484;DHT22;15704;48.834;8.736;2022-07-10T09:04:49;17.80;99.90
28484;DHT22;15704;48.834;8.736;2022-07-10T09:08:33;18.40;99.90
28484;DHT22;15704;48.834;8.736;2022-07-10T09:12:17;18.40;99.90
28484;DHT22;15704;48.834;8.736;2022-07-10T09:16:00;18.10;99.90
28484;DHT22;15704;48.834;8.736;2022-07-10T09:19:44;18.60;99.90
28484;DHT22;15704;48.834;8.736;2022-07-10T09:23:27;18.30;99.90
28484;DHT22;15704;48.834;8.736;2022-07-10T09:27:12;18.10;99.90
28484;DHT22;15704;48.834;8.736;2022-07-10T09:30:56;18.20;99.90
28484;DHT22;15704;48.834;8.736;2022-07-10T09:34:41;18.50;99.90
28484;DHT22;15704;48.834;8.736;2022-07-10T09:38:24;18.10;99.90
28484;DHT22;15704;48.834;8.736;2022-07-10T09:42:26;18.20;99.90
28484;DHT22;15704;48.834;8.736;2022-07-10T09:46:08;17.60;99.90
28484;DHT22;15704;48.834;8.736;2022-07-10T09:49:51;17.80;99.90
28484;DHT22;15704;48.834;8.736;2022-07-10T09:53:37;17.50;99.90
28484;DHT22;15704;48.834;8.736;2022-07-10T09:57:29;18.00;99.90
28484;DHT22;15704;48.834;8.736;2022-07-10T10:01:13;17.90;99.90
28484;DHT22;15704;48.834;8.736;2022-07-10T10:04:58;18.20;99.90
28484;DHT22;15704;48.834;8.736;2022-07-10T10:08:48;18.40;99.90
28484;DHT22;15704;48.834;8.736;2022-07-10T10:12:44;18.40;99.90
28484;DHT22;15704;48.834;8.736;2022-07-10T10:16:30;18.00;99.90
28484;DHT22;15704;48.834;8.736;2022-07-10T10:20:20;18.30;99.90
28484;DHT22;15704;48.834;8.736;2022-07-10T10:24:21;17.80;99.90
28484;DHT22;15704;48.834;8.736;2022-07-10T10:28:08;17.70;99.90
28484;DHT22;15704;48.834;8.736;2022-07-10T10:31:57;18.20;99.90
28484;DHT22;15704;48.834;8.736;2022-07-10T10:35:43;17.40;99.90
28484;DHT22;15704;48.834;8.736;2022-07-10T10:39:28;18.40;98.80
28484;DHT22;15704;48.834;8.736;2022-07-10T10:43:19;18.40;98.40
28484;DHT22;15704;48.834;8.736;2022-07-10T10:47:04;18.70;97.50
28484;DHT22;15704;48.834;8.736;2022-07-10T10:50:52;18.70;96.90
28484;DHT22;15704;48.834;8.736;2022-07-10T10:55:03;18.40;97.30
28484;DHT22;15704;48.834;8.736;2022-07-10T10:58:50;19.20;96.70
28484;DHT22;15704;48.834;8.736;2022-07-10T11:02:35;20.00;96.00
28484;DHT22;15704;48.834;8.736;2022-07-10T11:06:38;19.70;94.50
28484;DHT22;15704;48.834;8.736;2022-07-10T11:10:27;19.10;95.20
28484;DHT22;15704;48.834;8.736;2022-07-10T11:14:12;18.50;96.00
28484;DHT22;15704;48.834;8.736;2022-07-10T11:17:56;18.80;96.10
28484;DHT22;15704;48.834;8.736;2022-07-10T11:21:46;19.20;95.10
28484;DHT22;15704;48.834;8.736;2022-07-10T11:25:39;18.80;95.30
28484;DHT22;15704;48.834;8.736;2022-07-10T11:29:27;19.00;94.60
28484;DHT22;15704;48.834;8.736;2022-07-10T11:33:09;19.30;93.90
28484;DHT22;15704;48.834;8.736;2022-07-10T11:36:52;18.50;94.20
28484;DHT22;15704;48.834;8.736;2022-07-10T11:40:35;17.80;95.00
28484;DHT22;15704;48.834;8.736;2022-07-10T11:44:18;17.80;94.80
28484;DHT22;15704;48.834;8.736;2022-07-10T11:48:04;18.20;93.00
28484;DHT22;15704;48.834;8.736;2022-07-10T11:51:48;18.50;92.90
28484;DHT22;15704;48.834;8.736;2022-07-10T11:55:32;18.70;92.80
28484;DHT22;15704;48.834;8.736;2022-07-10T11:59:24;18.60;93.30
28484;DHT22;15704;48.834;8.736;2022-07-10T12:03:19;18.40;93.00
28484;DHT22;15704;48.834;8.736;2022-07-10T12:07:09;18.30;92.80
28484;DHT22;15704;48.834;8.736;2022-07-10T12:10:52;18.60;91.80
28484;DHT22;15704;48.834;8.736;2022-07-10T12:14:35;18.50;92.40
28484;DHT22;15704;48.834;8.736;2022-07-10T12:18:20;18.30;92.40
28484;DHT22;15704;48.834;8.736;2022-07-10T12:22:05;18.00;92.50
28484;DHT22;15704;48.834;8.736;2022-07-10T12:25:49;17.90;91.80
28484;DHT22;15704;48.834;8.736;2022-07-10T12:29:32;17.90;92.00
28484;DHT22;15704;48.834;8.736;2022-07-10T12:33:18;17.80;91.90
28484;DHT22;15704;48.834;8.736;2022-07-10T12:37:09;18.00;91.20
28484;DHT22;15704;48.834;8.736;2022-07-10T12:41:06;18.10;91.60
28484;DHT22;15704;48.834;8.736;2022-07-10T12:44:49;18.40;91.40
28484;DHT22;15704;48.834;8.736;2022-07-10T12:48:32;18.50;91.30
28484;DHT22;15704;48.834;8.736;2022-07-10T12:52:24;18.50;91.10
28484;DHT22;15704;48.834;8.736;2022-07-10T12:56:26;18.40;91.00
28484;DHT22;15704;48.834;8.736;2022-07-10T13:00:10;18.70;90.60
28484;DHT22;15704;48.834;8.736;2022-07-10T13:03:59;18.60;90.70
28484;DHT22;15704;48.834;8.736;2022-07-10T13:07:43;18.70;88.60
28484;DHT22;15704;48.834;8.736;2022-07-10T13:11:26;18.70;90.60
28484;DHT22;15704;48.834;8.736;2022-07-10T13:15:09;18.70;90.40
28484;DHT22;15704;48.834;8.736;2022-07-10T13:18:53;18.90;91.00
28484;DHT22;15704;48.834;8.736;2022-07-10T13:22:36;19.20;89.70
28484;DHT22;15704;48.834;8.736;2022-07-10T13:26:20;18.90;90.30
28484;DHT22;15704;48.834;8.736;2022-07-10T13:30:03;18.20;90.90
28484;DHT22;15704;48.834;8.736;2022-07-10T13:33:46;19.30;90.90
28484;DHT22;15704;48.834;8.736;2022-07-10T13:37:29;19.50;89.40
28484;DHT22;15704;48.834;8.736;2022-07-10T13:41:11;19.10;90.10
28484;DHT22;15704;48.834;8.736;2022-07-10T13:44:56;19.20;89.80
28484;DHT22;15704;48.834;8.736;2022-07-10T13:48:38;19.50;90.40
28484;DHT22;15704;48.834;8.736;2022-07-10T13:52:22;19.60;88.70
28484;DHT22;15704;48.834;8.736;2022-07-10T13:56:06;19.10;90.50
28484;DHT22;15704;48.834;8.736;2022-07-10T13:59:57;19.20;90.10
28484;DHT22;15704;48.834;8.736;2022-07-10T14:03:41;19.70;89.50
28484;DHT22;15704;48.834;8.736;2022-07-10T14:07:23;19.70;88.00
28484;DHT22;15704;48.834;8.736;2022-07-10T14:11:13;19.70;88.10
28484;DHT22;15704;48.834;8.736;2022-07-10T14:14:58;19.90;87.90
28484;DHT22;15704;48.834;8.736;2022-07-10T14:18:41;19.80;89.10
28484;DHT22;15704;48.834;8.736;2022-07-10T14:22:27;20.10;88.40
28484;DHT22;15704;48.834;8.736;2022-07-10T14:26:10;20.50;85.60
28484;DHT22;15704;48.834;8.736;2022-07-10T14:29:53;21.20;83.80
28484;DHT22;15704;48.834;8.736;2022-07-10T14:33:37;21.20;84.60
28484;DHT22;15704;48.834;8.736;2022-07-10T14:37:19;20.80;84.30
28484;DHT22;15704;48.834;8.736;2022-07-10T14:41:03;19.90;85.60
28484;DHT22;15704;48.834;8.736;2022-07-10T14:44:47;20.50;85.70
28484;DHT22;15704;48.834;8.736;2022-07-10T14:48:30;20.60;83.80
28484;DHT22;15704;48.834;8.736;2022-07-10T14:52:14;20.30;84.50
28484;DHT22;15704;48.834;8.736;2022-07-10T14:55:59;20.10;86.10
28484;DHT22;15704;48.834;8.736;2022-07-10T14:59:41;20.70;85.40
28484;DHT22;15704;48.834;8.736;2022-07-10T15:03:24;20.30;86.70
28484;DHT22;15704;48.834;8.736;2022-07-10T15:07:07;20.20;87.90
28484;DHT22;15704;48.834;8.736;2022-07-10T15:10:51;19.80;87.30
28484;DHT22;15704;48.834;8.736;2022-07-10T15:14:34;20.30;86.60
28484;DHT22;15704;48.834;8.736;2022-07-10T15:18:17;20.00;88.10
28484;DHT22;15704;48.834;8.736;2022-07-10T15:22:00;20.00;87.50
28484;DHT22;15704;48.834;8.736;2022-07-10T15:25:43;19.70;86.60
28484;DHT22;15704;48.834;8.736;2022-07-10T15:29:27;20.40;86.50
28484;DHT22;15704;48.834;8.736;2022-07-10T15:33:10;20.30;85.90
28484;DHT22;15704;48.834;8.736;2022-07-10T15:36:53;20.30;86.40
28484;DHT22;15704;48.834;8.736;2022-07-10T15:40:36;19.80;88.00
28484;DHT22;15704;48.834;8.736;2022-07-10T15:44:18;20.00;88.20
28484;DHT22;15704;48.834;8.736;2022-07-10T15:48:03;19.80;88.80
28484;DHT22;15704;48.834;8.736;2022-07-10T15:51:45;19.60;89.00
28484;DHT22;15704;48.834;8.736;2022-07-10T15:55:28;19.70;89.50
28484;DHT22;15704;48.834;8.736;2022-07-10T15:59:11;19.70;89.70
28484;DHT22;15704;48.834;8.736;2022-07-10T16:02:54;20.10;90.00
28484;DHT22;15704;48.834;8.736;2022-07-10T16:06:40;20.00;88.90
28484;DHT22;15704;48.834;8.736;2022-07-10T16:10:23;20.00;90.20
28484;DHT22;15704;48.834;8.736;2022-07-10T16:14:05;19.90;90.20
28484;DHT22;15704;48.834;8.736;2022-07-10T16:17:48;19.50;90.30
28484;DHT22;15704;48.834;8.736;2022-07-10T16:21:31;19.20;90.90
28484;DHT22;15704;48.834;8.736;2022-07-10T16:25:17;19.10;90.70
28484;DHT22;15704;48.834;8.736;2022-07-10T16:29:17;19.20;90.80
28484;DHT22;15704;48.834;8.736;2022-07-10T16:32:59;19.10;91.20
28484;DHT22;15704;48.834;8.736;2022-07-10T16:36:42;19.30;90.90
28484;DHT22;15704;48.834;8.736;2022-07-10T16:40:26;19.20;91.20
28484;DHT22;15704;48.834;8.736;2022-07-10T16:44:09;19.50;90.90
28484;DHT22;15704;48.834;8.736;2022-07-10T16:47:55;19.30;90.60
28484;DHT22;15704;48.834;8.736;2022-07-10T16:51:38;19.20;91.20
28484;DHT22;15704;48.834;8.736;2022-07-10T16:55:21;19.20;91.40
28484;DHT22;15704;48.834;8.736;2022-07-10T16:59:05;19.10;91.40
28484;DHT22;15704;48.834;8.736;2022-07-10T17:02:48;18.90;91.50
28484;DHT22;15704;48.834;8.736;2022-07-10T17:06:31;19.20;91.60
28484;DHT22;15704;48.834;8.736;2022-07-10T17:10:13;19.10;91.70
28484;DHT22;15704;48.834;8.736;2022-07-10T17:13:57;19.20;91.60
28484;DHT22;15704;48.834;8.736;2022-07-10T17:17:41;19.10;91.80
28484;DHT22;15704;48.834;8.736;2022-07-10T17:21:24;19.00;91.90
28484;DHT22;15704;48.834;8.736;2022-07-10T17:25:27;18.90;92.30
28484;DHT22;15704;48.834;8.736;2022-07-10T17:29:10;18.60;92.50
28484;DHT22;15704;48.834;8.736;2022-07-10T17:32:54;18.40;92.80
28484;DHT22;15704;48.834;8.736;2022-07-10T17:36:44;18.40;93.00
28484;DHT22;15704;48.834;8.736;2022-07-10T17:40:27;18.10;93.60
28484;DHT22;15704;48.834;8.736;2022-07-10T17:44:10;18.10;93.80
28484;DHT22;15704;48.834;8.736;2022-07-10T17:47:54;18.20;93.60
28484;DHT22;15704;48.834;8.736;2022-07-10T17:51:37;18.70;93.20
28484;DHT22;15704;48.834;8.736;2022-07-10T17:55:20;18.80;92.80
28484;DHT22;15704;48.834;8.736;2022-07-10T17:59:03;18.60;92.70
28484;DHT22;15704;48.834;8.736;2022-07-10T18:02:46;18.70;92.80
28484;DHT22;15704;48.834;8.736;2022-07-10T18:06:30;18.60;93.10
28484;DHT22;15704;48.834;8.736;2022-07-10T18:10:13;18.90;92.60
28484;DHT22;15704;48.834;8.736;2022-07-10T18:13:56;19.00;92.50
28484;DHT22;15704;48.834;8.736;2022-07-10T18:17:39;19.30;92.10
28484;DHT22;15704;48.834;8.736;2022-07-10T18:21:23;20.20;91.00
28484;DHT22;15704;48.834;8.736;2022-07-10T18:25:08;19.90;90.80
28484;DHT22;15704;48.834;8.736;2022-07-10T18:28:52;19.40;91.70
28484;DHT22;15704;48.834;8.736;2022-07-10T18:32:35;18.50;93.00
28484;DHT22;15704;48.834;8.736;2022-07-10T18:36:35;18.00;94.00
28484;DHT22;15704;48.834;8.736;2022-07-10T18:40:19;17.60;94.50
28484;DHT22;15704;48.834;8.736;2022-07-10T18:44:02;17.30;95.40
28484;DHT22;15704;48.834;8.736;2022-07-10T18:47:44;17.20;95.40
28484;DHT22;15704;48.834;8.736;2022-07-10T18:51:27;17.00;95.70
28484;DHT22;15704;48.834;8.736;2022-07-10T18:55:10;16.90;96.00
28484;DHT22;15704;48.834;8.736;2022-07-10T18:58:54;16.80;96.40
28484;DHT22;15704;48.834;8.736;2022-07-10T19:02:38;16.70;96.50
28484;DHT22;15704;48.834;8.736;2022-07-10T19:06:21;16.70;96.70
28484;DHT22;15704;48.834;8.736;2022-07-10T19:10:04;16.60;96.90
28484;DHT22;15704;48.834;8.736;2022-07-10T19:13:47;16.60;97.10
28484;DHT22;15704;48.834;8.736;2022-07-10T19:17:32;16.50;97.30
28484;DHT22;15704;48.834;8.736;2022-07-10T19:21:20;16.50;97.70
28484;DHT22;15704;48.834;8.736;2022-07-10T19:25:03;16.50;97.50
28484;DHT22;15704;48.834;8.736;2022-07-10T19:28:46;16.40;97.60
28484;DHT22;15704;48.834;8.736;2022-07-10T19:32:28;16.40;97.80
28484;DHT22;15704;48.834;8.736;2022-07-10T19:36:13;16.40;98.00
28484;DHT22;15704;48.834;8.736;2022-07-10T19:39:55;16.40;98.50
28484;DHT22;15704;48.834;8.736;2022-07-10T19:43:41;16.40;98.40
28484;DHT22;15704;48.834;8.736;2022-07-10T19:47:26;16.40;98.30
28484;DHT22;15704;48.834;8.736;2022-07-10T19:51:09;16.40;98.40
28484;DHT22;15704;48.834;8.736;2022-07-10T19:54:54;16.40;98.50
28484;DHT22;15704;48.834;8.736;2022-07-10T19:58:39;16.40;98.70
28484;DHT22;15704;48.834;8.736;2022-07-10T20:02:22;16.30;98.80
28484;DHT22;15704;48.834;8.736;2022-07-10T20:06:05;16.40;98.80
28484;DHT22;15704;48.834;8.736;2022-07-10T20:09:50;16.30;99.00
28484;DHT22;15704;48.834;8.736;2022-07-10T20:13:34;16.30;99.10
28484;DHT22;15704;48.834;8.736;2022-07-10T20:17:19;16.30;99.20
28484;DHT22;15704;48.834;8.736;2022-07-10T20:21:04;16.30;99.40
28484;DHT22;15704;48.834;8.736;2022-07-10T20:24:47;16.30;99.40
28484;DHT22;15704;48.834;8.736;2022-07-10T20:28:30;16.20;99.90
28484;DHT22;15704;48.834;8.736;2022-07-10T20:32:15;16.20;99.90
28484;DHT22;15704;48.834;8.736;2022-07-10T20:35:58;16.10;99.90
28484;DHT22;15704;48.834;8.736;2022-07-10T20:40:00;16.10;99.90
28484;DHT22;15704;48.834;8.736;2022-07-10T20:43:43;15.90;99.90
28484;DHT22;15704;48.834;8.736;2022-07-10T20:47:28;15.90;99.90
28484;DHT22;15704;48.834;8.736;2022-07-10T20:51:11;15.80;99.90
28484;DHT22;15704;48.834;8.736;2022-07-10T20:54:54;15.70;99.90
28484;DHT22;15704;48.834;8.736;2022-07-10T20:58:40;15.60;99.90
28484;DHT22;15704;48.834;8.736;2022-07-10T21:02:30;15.60;99.90
28484;DHT22;15704;48.834;8.736;2022-07-10T21:06:12;15.60;99.90
28484;DHT22;15704;48.834;8.736;2022-07-10T21:09:55;15.60;99.90
28484;DHT22;15704;48.834;8.736;2022-07-10T21:13:38;15.60;99.90
28484;DHT22;15704;48.834;8.736;2022-07-10T21:17:30;15.70;99.90
28484;DHT22;15704;48.834;8.736;2022-07-10T21:21:13;15.60;99.90
28484;DHT22;15704;48.834;8.736;2022-07-10T21:25:00;15.60;99.90
28484;DHT22;15704;48.834;8.736;2022-07-10T21:28:42;15.70;99.90
28484;DHT22;15704;48.834;8.736;2022-07-10T21:32:28;15.70;99.90
28484;DHT22;15704;48.834;8.736;2022-07-10T21:36:12;15.60;99.90
28484;DHT22;15704;48.834;8.736;2022-07-10T21:39:55;15.70;99.90
28484;DHT22;15704;48.834;8.736;2022-07-10T21:43:38;15.70;99.90
28484;DHT22;15704;48.834;8.736;2022-07-10T21:47:21;15.70;99.90
28484;DHT22;15704;48.834;8.736;2022-07-10T21:51:04;15.70;99.90
28484;DHT22;15704;48.834;8.736;2022-07-10T21:54:49;15.70;99.90
28484;DHT22;15704;48.834;8.736;2022-07-10T21:58:32;15.70;99.90
28484;DHT22;15704;48.834;8.736;2022-07-10T22:02:15;15.60;99.90
28484;DHT22;15704;48.834;8.736;2022-07-10T22:05:59;15.50;99.90
28484;DHT22;15704;48.834;8.736;2022-07-10T22:09:42;15.40;99.90
28484;DHT22;15704;48.834;8.736;2022-07-10T22:13:27;15.30;99.90
28484;DHT22;15704;48.834;8.736;2022-07-10T22:17:09;15.10;99.90
28484;DHT22;15704;48.834;8.736;2022-07-10T22:20:53;15.00;99.90
28484;DHT22;15704;48.834;8.736;2022-07-10T22:24:39;14.80;99.90
28484;DHT22;15704;48.834;8.736;2022-07-10T22:28:22;14.80;99.90
28484;DHT22;15704;48.834;8.736;2022-07-10T22:32:08;14.70;99.90
28484;DHT22;15704;48.834;8.736;2022-07-10T22:52:24;14.20;99.90
28484;DHT22;15704;48.834;8.736;2022-07-10T22:56:07;14.20;99.90
28484;DHT22;15704;48.834;8.736;2022-07-10T22:59:50;14.20;99.90
28484;DHT22;15704;48.834;8.736;2022-07-10T23:03:36;14.20;99.90
28484;DHT22;15704;48.834;8.736;2022-07-10T23:07:19;14.30;99.90
28484;DHT22;15704;48.834;8.736;2022-07-10T23:11:03;14.30;99.90
28484;DHT22;15704;48.834;8.736;2022-07-10T23:14:48;14.30;99.90
28484;DHT22;15704;48.834;8.736;2022-07-10T23:18:31;14.20;99.90
28484;DHT22;15704;48.834;8.736;2022-07-10T23:22:19;14.20;99.90
28484;DHT22;15704;48.834;8.736;2022-07-10T23:26:03;14.10;99.90
28484;DHT22;15704;48.834;8.736;2022-07-10T23:29:47;14.00;99.90
28484;DHT22;15704;48.834;8.736;2022-07-10T23:33:30;13.90;99.90
28484;DHT22;15704;48.834;8.736;2022-07-10T23:37:16;13.80;99.90
28484;DHT22;15704;48.834;8.736;2022-07-10T23:40:58;13.70;99.90
28484;DHT22;15704;48.834;8.736;2022-07-10T23:44:43;13.70;99.90
28484;DHT22;15704;48.834;8.736;2022-07-10T23:48:26;13.60;99.90
28484;DHT22;15704;48.834;8.736;2022-07-10T23:52:26;13.50;99.90
28484;DHT22;15704;48.834;8.736;2022-07-10T23:56:09;13.50;99.90